Hlavní strana
METAR-TAF:

METAR-TAF

Letiště :

Yap, Mikronésie

zeměpisná šířka: 09-29N, zeměpisná délka: 138-05E, výška: 28 m

Aktuální stav počasí

Zpráva byla vytvořena před 28 minutami, v 22:56 UTC
vítr z různých směrů 4 kt
Teplota 31°C
Vlhkost vzduchu 75%
Tlak 1012 hPa
Viditelnost: 19.3 km
Polojasno ve výšce 1600 ft
Oblačno až skoro zataženo ve výšce 30000 ft

METAR: PTYA 152256Z VRB04KT 12SM SCT016 BKN300 31/26 A2987 RMK SLP115 T03080257

Čas: 09:24 (23:24 UTC)

Předpověď počasí

Zpráva byla vytvořena před 5 hodinami a 52 minutami, v 17:32 UTC
Předpověď platná od 15 v 18 UTC do 16 v 18 UTC
vítr z různých směrů 5 kt
Viditelnost: 10 km
Skoro jasno ve výšce 1700 ft
Polojasno ve výšce 12000 ft
přeháňky v blízkosti

TAF: PTYA 151732Z 1518/1618 VRB05KT P6SM VCSH FEW017 SCT120

Stav a předpovědi počasí z více než 4 000 letišť (zprávy METAR a TAF).

Červené a žluté tečky na mapě představují dostupné meteorologické stanice.

Když kurzor umístíte na tečku, zobrazí se název stanice.

Pak kliknutím zobrazíte stav a předpověď počasí.

Chcete-li změnit mapu, kliknutím na zelené tlačítko se znaménkem +mapu přiblížíte, kliknutím na zelené tlačítko se znaménkem – mapu oddálíte a kliknutím na zelené šipky přejdete na sousední mapy.


METAR-TAF: